sensor_id;sensor_type;location;lat;lon;timestamp;P1;durP1;ratioP1;P2;durP2;ratioP2
24157;SDS011;12316;50.904;4.200;2024-01-11T00:01:03;32.70;;;17.52;;
24157;SDS011;12316;50.904;4.200;2024-01-11T00:03:29;35.67;;;17.35;;
24157;SDS011;12316;50.904;4.200;2024-01-11T00:05:55;35.95;;;17.35;;
24157;SDS011;12316;50.904;4.200;2024-01-11T00:08:20;33.25;;;17.88;;
24157;SDS011;12316;50.904;4.200;2024-01-11T00:10:46;35.20;;;16.85;;
24157;SDS011;12316;50.904;4.200;2024-01-11T00:13:12;35.33;;;17.05;;
24157;SDS011;12316;50.904;4.200;2024-01-11T00:15:37;34.45;;;17.02;;
24157;SDS011;12316;50.904;4.200;2024-01-11T00:18:03;35.50;;;18.52;;
24157;SDS011;12316;50.904;4.200;2024-01-11T00:20:29;31.15;;;16.88;;
24157;SDS011;12316;50.904;4.200;2024-01-11T00:22:54;32.25;;;17.75;;
24157;SDS011;12316;50.904;4.200;2024-01-11T00:25:20;35.63;;;17.60;;
24157;SDS011;12316;50.904;4.200;2024-01-11T00:27:46;32.55;;;16.80;;
24157;SDS011;12316;50.904;4.200;2024-01-11T00:30:11;31.20;;;16.92;;
24157;SDS011;12316;50.904;4.200;2024-01-11T00:32:37;37.83;;;17.75;;
24157;SDS011;12316;50.904;4.200;2024-01-11T00:35:03;34.88;;;18.52;;
24157;SDS011;12316;50.904;4.200;2024-01-11T00:37:29;34.40;;;17.13;;
24157;SDS011;12316;50.904;4.200;2024-01-11T00:39:54;34.80;;;18.05;;
24157;SDS011;12316;50.904;4.200;2024-01-11T00:42:20;38.72;;;18.55;;
24157;SDS011;12316;50.904;4.200;2024-01-11T00:44:46;33.85;;;18.63;;
24157;SDS011;12316;50.904;4.200;2024-01-11T00:47:11;37.08;;;17.80;;
24157;SDS011;12316;50.904;4.200;2024-01-11T00:49:37;35.88;;;18.77;;
24157;SDS011;12316;50.904;4.200;2024-01-11T00:52:03;35.15;;;18.50;;
24157;SDS011;12316;50.904;4.200;2024-01-11T00:54:29;33.60;;;17.50;;
24157;SDS011;12316;50.904;4.200;2024-01-11T00:56:55;34.40;;;17.92;;
24157;SDS011;12316;50.904;4.200;2024-01-11T00:59:20;36.20;;;17.98;;
24157;SDS011;12316;50.904;4.200;2024-01-11T01:01:46;35.03;;;18.25;;
24157;SDS011;12316;50.904;4.200;2024-01-11T01:04:15;36.45;;;18.45;;
24157;SDS011;12316;50.904;4.200;2024-01-11T01:06:41;37.00;;;18.50;;
24157;SDS011;12316;50.904;4.200;2024-01-11T01:09:07;34.65;;;18.15;;
24157;SDS011;12316;50.904;4.200;2024-01-11T01:11:33;36.95;;;19.10;;
24157;SDS011;12316;50.904;4.200;2024-01-11T01:13:59;37.45;;;19.02;;
24157;SDS011;12316;50.904;4.200;2024-01-11T01:16:25;39.88;;;19.05;;
24157;SDS011;12316;50.904;4.200;2024-01-11T01:18:51;40.53;;;20.27;;
24157;SDS011;12316;50.904;4.200;2024-01-11T01:21:16;39.28;;;19.73;;
24157;SDS011;12316;50.904;4.200;2024-01-11T01:23:42;38.55;;;18.90;;
24157;SDS011;12316;50.904;4.200;2024-01-11T01:26:07;32.80;;;17.83;;
24157;SDS011;12316;50.904;4.200;2024-01-11T01:28:33;34.15;;;18.85;;
24157;SDS011;12316;50.904;4.200;2024-01-11T01:30:59;35.08;;;18.33;;
24157;SDS011;12316;50.904;4.200;2024-01-11T01:33:24;34.88;;;19.17;;
24157;SDS011;12316;50.904;4.200;2024-01-11T01:35:50;36.97;;;19.30;;
24157;SDS011;12316;50.904;4.200;2024-01-11T01:38:16;37.95;;;19.20;;
24157;SDS011;12316;50.904;4.200;2024-01-11T01:40:42;37.67;;;18.83;;
24157;SDS011;12316;50.904;4.200;2024-01-11T01:43:09;36.95;;;18.77;;
24157;SDS011;12316;50.904;4.200;2024-01-11T01:45:35;33.88;;;17.90;;
24157;SDS011;12316;50.904;4.200;2024-01-11T01:48:01;36.65;;;18.38;;
24157;SDS011;12316;50.904;4.200;2024-01-11T01:50:27;37.15;;;18.48;;
24157;SDS011;12316;50.904;4.200;2024-01-11T01:52:54;36.53;;;18.20;;
24157;SDS011;12316;50.904;4.200;2024-01-11T01:55:21;31.67;;;17.23;;
24157;SDS011;12316;50.904;4.200;2024-01-11T01:57:47;31.33;;;17.83;;
24157;SDS011;12316;50.904;4.200;2024-01-11T02:00:14;35.75;;;17.10;;
24157;SDS011;12316;50.904;4.200;2024-01-11T02:02:41;34.65;;;18.60;;
24157;SDS011;12316;50.904;4.200;2024-01-11T02:05:09;34.38;;;18.38;;
24157;SDS011;12316;50.904;4.200;2024-01-11T02:07:36;33.50;;;17.95;;
24157;SDS011;12316;50.904;4.200;2024-01-11T02:10:02;34.30;;;18.27;;
24157;SDS011;12316;50.904;4.200;2024-01-11T02:12:28;37.17;;;18.25;;
24157;SDS011;12316;50.904;4.200;2024-01-11T02:14:54;31.63;;;17.33;;
24157;SDS011;12316;50.904;4.200;2024-01-11T02:17:20;36.08;;;18.80;;
24157;SDS011;12316;50.904;4.200;2024-01-11T02:19:46;34.10;;;18.10;;
24157;SDS011;12316;50.904;4.200;2024-01-11T02:22:16;34.00;;;19.05;;
24157;SDS011;12316;50.904;4.200;2024-01-11T02:24:52;35.92;;;19.15;;
24157;SDS011;12316;50.904;4.200;2024-01-11T02:27:18;34.30;;;17.88;;
24157;SDS011;12316;50.904;4.200;2024-01-11T02:29:44;35.47;;;18.13;;
24157;SDS011;12316;50.904;4.200;2024-01-11T02:32:10;34.08;;;17.60;;
24157;SDS011;12316;50.904;4.200;2024-01-11T02:34:36;35.80;;;18.20;;
24157;SDS011;12316;50.904;4.200;2024-01-11T02:37:01;36.58;;;19.90;;
24157;SDS011;12316;50.904;4.200;2024-01-11T02:39:27;33.28;;;18.30;;
24157;SDS011;12316;50.904;4.200;2024-01-11T02:41:54;34.80;;;18.35;;
24157;SDS011;12316;50.904;4.200;2024-01-11T02:44:20;32.67;;;17.27;;
24157;SDS011;12316;50.904;4.200;2024-01-11T02:46:46;35.08;;;18.65;;
24157;SDS011;12316;50.904;4.200;2024-01-11T02:49:12;35.42;;;17.67;;
24157;SDS011;12316;50.904;4.200;2024-01-11T02:51:37;33.95;;;18.08;;
24157;SDS011;12316;50.904;4.200;2024-01-11T02:54:03;33.28;;;17.88;;
24157;SDS011;12316;50.904;4.200;2024-01-11T02:56:29;36.80;;;19.15;;
24157;SDS011;12316;50.904;4.200;2024-01-11T02:58:54;37.03;;;18.50;;
24157;SDS011;12316;50.904;4.200;2024-01-11T03:01:20;36.55;;;18.83;;
24157;SDS011;12316;50.904;4.200;2024-01-11T03:03:46;34.67;;;18.08;;
24157;SDS011;12316;50.904;4.200;2024-01-11T03:06:11;34.10;;;17.95;;
24157;SDS011;12316;50.904;4.200;2024-01-11T03:08:37;33.80;;;18.35;;
24157;SDS011;12316;50.904;4.200;2024-01-11T03:11:03;36.88;;;18.35;;
24157;SDS011;12316;50.904;4.200;2024-01-11T03:13:29;32.97;;;17.83;;
24157;SDS011;12316;50.904;4.200;2024-01-11T03:15:56;34.92;;;18.00;;
24157;SDS011;12316;50.904;4.200;2024-01-11T03:18:22;33.90;;;18.63;;
24157;SDS011;12316;50.904;4.200;2024-01-11T03:20:48;36.55;;;19.40;;
24157;SDS011;12316;50.904;4.200;2024-01-11T03:23:13;38.85;;;19.15;;
24157;SDS011;12316;50.904;4.200;2024-01-11T03:25:39;36.33;;;18.92;;
24157;SDS011;12316;50.904;4.200;2024-01-11T03:28:05;32.30;;;17.48;;
24157;SDS011;12316;50.904;4.200;2024-01-11T03:30:30;32.08;;;18.40;;
24157;SDS011;12316;50.904;4.200;2024-01-11T03:32:56;34.70;;;17.92;;
24157;SDS011;12316;50.904;4.200;2024-01-11T03:35:22;37.60;;;19.83;;
24157;SDS011;12316;50.904;4.200;2024-01-11T03:37:48;36.50;;;18.75;;
24157;SDS011;12316;50.904;4.200;2024-01-11T03:40:13;41.05;;;20.35;;
24157;SDS011;12316;50.904;4.200;2024-01-11T03:42:39;35.92;;;19.52;;
24157;SDS011;12316;50.904;4.200;2024-01-11T03:45:06;36.03;;;18.25;;
24157;SDS011;12316;50.904;4.200;2024-01-11T03:47:32;40.72;;;19.48;;
24157;SDS011;12316;50.904;4.200;2024-01-11T03:49:58;36.05;;;19.35;;
24157;SDS011;12316;50.904;4.200;2024-01-11T03:52:23;36.85;;;19.10;;
24157;SDS011;12316;50.904;4.200;2024-01-11T03:54:49;37.47;;;19.90;;
24157;SDS011;12316;50.904;4.200;2024-01-11T03:57:15;36.95;;;19.70;;
24157;SDS011;12316;50.904;4.200;2024-01-11T03:59:42;39.08;;;19.90;;
24157;SDS011;12316;50.904;4.200;2024-01-11T04:02:07;38.35;;;19.83;;
24157;SDS011;12316;50.904;4.200;2024-01-11T04:04:34;43.90;;;20.83;;
24157;SDS011;12316;50.904;4.200;2024-01-11T04:06:59;38.65;;;19.60;;
24157;SDS011;12316;50.904;4.200;2024-01-11T04:09:25;38.03;;;18.95;;
24157;SDS011;12316;50.904;4.200;2024-01-11T04:11:51;38.92;;;18.70;;
24157;SDS011;12316;50.904;4.200;2024-01-11T04:14:16;38.30;;;20.63;;
24157;SDS011;12316;50.904;4.200;2024-01-11T04:16:42;36.60;;;19.15;;
24157;SDS011;12316;50.904;4.200;2024-01-11T04:19:08;39.88;;;19.88;;
24157;SDS011;12316;50.904;4.200;2024-01-11T04:21:34;39.65;;;20.42;;
24157;SDS011;12316;50.904;4.200;2024-01-11T04:24:00;40.83;;;20.90;;
24157;SDS011;12316;50.904;4.200;2024-01-11T04:26:26;35.97;;;19.88;;
24157;SDS011;12316;50.904;4.200;2024-01-11T04:28:52;38.10;;;19.95;;
24157;SDS011;12316;50.904;4.200;2024-01-11T04:31:18;39.42;;;18.98;;
24157;SDS011;12316;50.904;4.200;2024-01-11T04:33:44;41.22;;;21.40;;
24157;SDS011;12316;50.904;4.200;2024-01-11T04:36:11;39.53;;;20.17;;
24157;SDS011;12316;50.904;4.200;2024-01-11T04:38:37;40.90;;;21.20;;
24157;SDS011;12316;50.904;4.200;2024-01-11T04:41:10;42.60;;;21.50;;
24157;SDS011;12316;50.904;4.200;2024-01-11T04:43:37;38.38;;;21.13;;
24157;SDS011;12316;50.904;4.200;2024-01-11T04:46:13;41.95;;;21.00;;
24157;SDS011;12316;50.904;4.200;2024-01-11T04:48:40;42.28;;;20.85;;
24157;SDS011;12316;50.904;4.200;2024-01-11T04:51:06;40.90;;;20.33;;
24157;SDS011;12316;50.904;4.200;2024-01-11T04:53:31;40.40;;;21.55;;
24157;SDS011;12316;50.904;4.200;2024-01-11T04:55:57;40.92;;;21.05;;
24157;SDS011;12316;50.904;4.200;2024-01-11T04:58:23;39.08;;;21.67;;
24157;SDS011;12316;50.904;4.200;2024-01-11T05:00:48;43.67;;;22.13;;
24157;SDS011;12316;50.904;4.200;2024-01-11T05:03:14;42.15;;;20.70;;
24157;SDS011;12316;50.904;4.200;2024-01-11T05:05:40;40.15;;;21.38;;
24157;SDS011;12316;50.904;4.200;2024-01-11T05:08:06;38.45;;;20.17;;
24157;SDS011;12316;50.904;4.200;2024-01-11T05:10:31;40.97;;;20.25;;
24157;SDS011;12316;50.904;4.200;2024-01-11T05:12:57;38.88;;;22.23;;
24157;SDS011;12316;50.904;4.200;2024-01-11T05:15:23;39.53;;;20.15;;
24157;SDS011;12316;50.904;4.200;2024-01-11T05:17:49;38.67;;;20.00;;
24157;SDS011;12316;50.904;4.200;2024-01-11T05:20:15;38.97;;;20.67;;
24157;SDS011;12316;50.904;4.200;2024-01-11T05:22:40;38.88;;;21.55;;
24157;SDS011;12316;50.904;4.200;2024-01-11T05:25:06;38.35;;;20.25;;
24157;SDS011;12316;50.904;4.200;2024-01-11T05:27:32;41.53;;;21.45;;
24157;SDS011;12316;50.904;4.200;2024-01-11T05:29:58;42.50;;;21.25;;
24157;SDS011;12316;50.904;4.200;2024-01-11T05:32:23;44.25;;;20.85;;
24157;SDS011;12316;50.904;4.200;2024-01-11T05:34:49;38.60;;;20.98;;
24157;SDS011;12316;50.904;4.200;2024-01-11T05:37:15;39.78;;;21.10;;
24157;SDS011;12316;50.904;4.200;2024-01-11T05:39:41;41.30;;;22.02;;
24157;SDS011;12316;50.904;4.200;2024-01-11T05:42:06;41.90;;;21.95;;
24157;SDS011;12316;50.904;4.200;2024-01-11T05:44:32;39.55;;;21.52;;
24157;SDS011;12316;50.904;4.200;2024-01-11T05:46:58;38.33;;;20.50;;
24157;SDS011;12316;50.904;4.200;2024-01-11T05:49:23;41.00;;;19.42;;
24157;SDS011;12316;50.904;4.200;2024-01-11T05:51:49;40.88;;;20.63;;
24157;SDS011;12316;50.904;4.200;2024-01-11T05:54:14;38.10;;;21.05;;
24157;SDS011;12316;50.904;4.200;2024-01-11T05:56:40;43.95;;;21.25;;
24157;SDS011;12316;50.904;4.200;2024-01-11T05:59:06;40.90;;;22.25;;
24157;SDS011;12316;50.904;4.200;2024-01-11T06:01:31;38.67;;;20.67;;
24157;SDS011;12316;50.904;4.200;2024-01-11T06:03:57;39.17;;;21.33;;
24157;SDS011;12316;50.904;4.200;2024-01-11T06:06:23;42.17;;;20.58;;
24157;SDS011;12316;50.904;4.200;2024-01-11T06:08:48;40.08;;;21.45;;
24157;SDS011;12316;50.904;4.200;2024-01-11T06:11:14;43.85;;;21.15;;
24157;SDS011;12316;50.904;4.200;2024-01-11T06:13:40;42.63;;;22.70;;
24157;SDS011;12316;50.904;4.200;2024-01-11T06:16:06;40.30;;;21.95;;
24157;SDS011;12316;50.904;4.200;2024-01-11T06:18:32;40.40;;;22.58;;
24157;SDS011;12316;50.904;4.200;2024-01-11T06:20:58;42.30;;;21.42;;
24157;SDS011;12316;50.904;4.200;2024-01-11T06:23:25;36.97;;;20.60;;
24157;SDS011;12316;50.904;4.200;2024-01-11T06:25:50;36.78;;;21.10;;
24157;SDS011;12316;50.904;4.200;2024-01-11T06:28:16;45.67;;;21.42;;
24157;SDS011;12316;50.904;4.200;2024-01-11T06:30:42;41.58;;;20.48;;
24157;SDS011;12316;50.904;4.200;2024-01-11T06:33:08;39.33;;;21.05;;
24157;SDS011;12316;50.904;4.200;2024-01-11T06:35:34;42.28;;;22.70;;
24157;SDS011;12316;50.904;4.200;2024-01-11T06:38:00;37.75;;;20.77;;
24157;SDS011;12316;50.904;4.200;2024-01-11T06:40:25;52.53;;;23.52;;
24157;SDS011;12316;50.904;4.200;2024-01-11T06:42:51;40.70;;;21.42;;
24157;SDS011;12316;50.904;4.200;2024-01-11T06:45:17;43.88;;;22.55;;
24157;SDS011;12316;50.904;4.200;2024-01-11T06:47:44;45.63;;;22.90;;
24157;SDS011;12316;50.904;4.200;2024-01-11T06:50:11;42.97;;;21.98;;
24157;SDS011;12316;50.904;4.200;2024-01-11T06:52:38;42.25;;;21.75;;
24157;SDS011;12316;50.904;4.200;2024-01-11T06:55:04;41.22;;;22.52;;
24157;SDS011;12316;50.904;4.200;2024-01-11T06:57:30;39.55;;;22.55;;
24157;SDS011;12316;50.904;4.200;2024-01-11T06:59:55;45.05;;;23.02;;
24157;SDS011;12316;50.904;4.200;2024-01-11T07:02:21;51.75;;;23.80;;
24157;SDS011;12316;50.904;4.200;2024-01-11T07:04:47;46.53;;;23.17;;
24157;SDS011;12316;50.904;4.200;2024-01-11T07:07:12;51.85;;;26.55;;
24157;SDS011;12316;50.904;4.200;2024-01-11T07:09:38;51.15;;;25.25;;
24157;SDS011;12316;50.904;4.200;2024-01-11T07:12:04;45.53;;;24.35;;
24157;SDS011;12316;50.904;4.200;2024-01-11T07:14:31;44.72;;;22.38;;
24157;SDS011;12316;50.904;4.200;2024-01-11T07:16:57;45.40;;;21.38;;
24157;SDS011;12316;50.904;4.200;2024-01-11T07:19:23;41.70;;;21.20;;
24157;SDS011;12316;50.904;4.200;2024-01-11T07:21:48;45.60;;;23.05;;
24157;SDS011;12316;50.904;4.200;2024-01-11T07:24:14;44.92;;;22.20;;
24157;SDS011;12316;50.904;4.200;2024-01-11T07:26:40;46.55;;;23.50;;
24157;SDS011;12316;50.904;4.200;2024-01-11T07:29:06;46.42;;;23.10;;
24157;SDS011;12316;50.904;4.200;2024-01-11T07:31:32;45.05;;;22.70;;
24157;SDS011;12316;50.904;4.200;2024-01-11T07:33:58;39.65;;;21.95;;
24157;SDS011;12316;50.904;4.200;2024-01-11T07:36:24;45.35;;;21.33;;
24157;SDS011;12316;50.904;4.200;2024-01-11T07:38:50;42.35;;;21.85;;
24157;SDS011;12316;50.904;4.200;2024-01-11T07:41:16;43.13;;;21.75;;
24157;SDS011;12316;50.904;4.200;2024-01-11T07:43:41;42.45;;;22.42;;
24157;SDS011;12316;50.904;4.200;2024-01-11T07:46:08;40.50;;;21.42;;
24157;SDS011;12316;50.904;4.200;2024-01-11T07:48:34;45.20;;;22.70;;
24157;SDS011;12316;50.904;4.200;2024-01-11T07:51:00;42.30;;;22.55;;
24157;SDS011;12316;50.904;4.200;2024-01-11T07:53:26;40.08;;;21.77;;
24157;SDS011;12316;50.904;4.200;2024-01-11T07:55:52;46.50;;;23.55;;
24157;SDS011;12316;50.904;4.200;2024-01-11T07:58:17;43.15;;;23.52;;
24157;SDS011;12316;50.904;4.200;2024-01-11T08:00:45;44.60;;;22.98;;
24157;SDS011;12316;50.904;4.200;2024-01-11T08:03:12;51.58;;;23.30;;
24157;SDS011;12316;50.904;4.200;2024-01-11T08:05:37;45.70;;;23.55;;
24157;SDS011;12316;50.904;4.200;2024-01-11T08:08:03;46.63;;;22.50;;
24157;SDS011;12316;50.904;4.200;2024-01-11T08:10:29;43.97;;;22.83;;
24157;SDS011;12316;50.904;4.200;2024-01-11T08:12:55;45.83;;;23.67;;
24157;SDS011;12316;50.904;4.200;2024-01-11T08:15:21;48.58;;;24.90;;
24157;SDS011;12316;50.904;4.200;2024-01-11T08:17:47;52.53;;;23.70;;
24157;SDS011;12316;50.904;4.200;2024-01-11T08:20:13;46.88;;;24.30;;
24157;SDS011;12316;50.904;4.200;2024-01-11T08:22:40;49.40;;;23.92;;
24157;SDS011;12316;50.904;4.200;2024-01-11T08:25:08;47.35;;;25.15;;
24157;SDS011;12316;50.904;4.200;2024-01-11T08:27:34;45.65;;;24.50;;
24157;SDS011;12316;50.904;4.200;2024-01-11T08:30:00;43.78;;;24.05;;
24157;SDS011;12316;50.904;4.200;2024-01-11T08:32:27;43.25;;;23.63;;
24157;SDS011;12316;50.904;4.200;2024-01-11T08:34:53;47.30;;;24.60;;
24157;SDS011;12316;50.904;4.200;2024-01-11T08:37:19;46.20;;;22.95;;
24157;SDS011;12316;50.904;4.200;2024-01-11T08:39:44;44.47;;;23.20;;
24157;SDS011;12316;50.904;4.200;2024-01-11T08:42:11;49.55;;;26.08;;
24157;SDS011;12316;50.904;4.200;2024-01-11T08:44:40;51.03;;;24.33;;
24157;SDS011;12316;50.904;4.200;2024-01-11T08:47:07;48.88;;;26.98;;
24157;SDS011;12316;50.904;4.200;2024-01-11T08:49:35;47.30;;;25.10;;
24157;SDS011;12316;50.904;4.200;2024-01-11T08:52:01;40.92;;;22.73;;
24157;SDS011;12316;50.904;4.200;2024-01-11T08:54:27;38.85;;;22.05;;
24157;SDS011;12316;50.904;4.200;2024-01-11T08:56:53;40.35;;;22.20;;
24157;SDS011;12316;50.904;4.200;2024-01-11T08:59:19;40.90;;;22.00;;
24157;SDS011;12316;50.904;4.200;2024-01-11T09:01:44;48.97;;;23.15;;
24157;SDS011;12316;50.904;4.200;2024-01-11T09:04:10;40.30;;;21.23;;
24157;SDS011;12316;50.904;4.200;2024-01-11T09:06:36;44.08;;;22.90;;
24157;SDS011;12316;50.904;4.200;2024-01-11T09:09:02;40.33;;;22.30;;
24157;SDS011;12316;50.904;4.200;2024-01-11T09:11:28;46.97;;;23.85;;
24157;SDS011;12316;50.904;4.200;2024-01-11T09:13:54;44.42;;;23.02;;
24157;SDS011;12316;50.904;4.200;2024-01-11T09:16:20;41.85;;;22.13;;
24157;SDS011;12316;50.904;4.200;2024-01-11T09:18:45;42.28;;;22.30;;
24157;SDS011;12316;50.904;4.200;2024-01-11T09:21:12;40.30;;;22.23;;
24157;SDS011;12316;50.904;4.200;2024-01-11T09:23:37;45.50;;;23.67;;
24157;SDS011;12316;50.904;4.200;2024-01-11T09:26:03;44.97;;;22.88;;
24157;SDS011;12316;50.904;4.200;2024-01-11T09:28:30;43.85;;;23.20;;
24157;SDS011;12316;50.904;4.200;2024-01-11T09:30:55;44.83;;;23.63;;
24157;SDS011;12316;50.904;4.200;2024-01-11T09:33:24;49.85;;;23.45;;
24157;SDS011;12316;50.904;4.200;2024-01-11T09:35:51;44.17;;;23.05;;
24157;SDS011;12316;50.904;4.200;2024-01-11T09:38:17;47.78;;;24.52;;
24157;SDS011;12316;50.904;4.200;2024-01-11T09:40:43;45.10;;;23.42;;
24157;SDS011;12316;50.904;4.200;2024-01-11T09:43:08;42.30;;;23.08;;
24157;SDS011;12316;50.904;4.200;2024-01-11T09:45:35;41.97;;;23.10;;
24157;SDS011;12316;50.904;4.200;2024-01-11T09:48:03;45.03;;;23.58;;
24157;SDS011;12316;50.904;4.200;2024-01-11T09:50:31;45.50;;;23.90;;
24157;SDS011;12316;50.904;4.200;2024-01-11T09:52:57;44.22;;;24.60;;
24157;SDS011;12316;50.904;4.200;2024-01-11T09:55:28;41.42;;;22.52;;
24157;SDS011;12316;50.904;4.200;2024-01-11T09:57:55;44.63;;;24.60;;
24157;SDS011;12316;50.904;4.200;2024-01-11T10:00:24;45.08;;;24.55;;
24157;SDS011;12316;50.904;4.200;2024-01-11T10:02:51;42.67;;;23.27;;
24157;SDS011;12316;50.904;4.200;2024-01-11T10:05:17;46.65;;;24.65;;
24157;SDS011;12316;50.904;4.200;2024-01-11T10:07:44;44.10;;;23.55;;
24157;SDS011;12316;50.904;4.200;2024-01-11T10:10:10;46.63;;;24.75;;
24157;SDS011;12316;50.904;4.200;2024-01-11T10:12:40;45.80;;;24.08;;
24157;SDS011;12316;50.904;4.200;2024-01-11T10:15:07;44.58;;;25.42;;
24157;SDS011;12316;50.904;4.200;2024-01-11T10:17:35;50.05;;;25.85;;
24157;SDS011;12316;50.904;4.200;2024-01-11T10:20:11;48.30;;;26.42;;
24157;SDS011;12316;50.904;4.200;2024-01-11T10:22:39;51.05;;;27.33;;
24157;SDS011;12316;50.904;4.200;2024-01-11T10:25:14;48.70;;;25.63;;
24157;SDS011;12316;50.904;4.200;2024-01-11T10:27:41;51.00;;;26.48;;
24157;SDS011;12316;50.904;4.200;2024-01-11T10:30:08;50.30;;;26.52;;
24157;SDS011;12316;50.904;4.200;2024-01-11T10:32:51;47.80;;;24.02;;
24157;SDS011;12316;50.904;4.200;2024-01-11T10:35:16;43.30;;;24.33;;
24157;SDS011;12316;50.904;4.200;2024-01-11T10:37:43;46.13;;;24.98;;
24157;SDS011;12316;50.904;4.200;2024-01-11T10:40:09;40.45;;;24.13;;
24157;SDS011;12316;50.904;4.200;2024-01-11T10:42:41;42.03;;;24.48;;
24157;SDS011;12316;50.904;4.200;2024-01-11T10:45:15;48.60;;;27.00;;
24157;SDS011;12316;50.904;4.200;2024-01-11T10:47:53;50.13;;;26.45;;
24157;SDS011;12316;50.904;4.200;2024-01-11T10:50:22;47.90;;;25.60;;
24157;SDS011;12316;50.904;4.200;2024-01-11T10:55:33;48.63;;;25.55;;
24157;SDS011;12316;50.904;4.200;2024-01-11T10:57:59;47.92;;;26.27;;
24157;SDS011;12316;50.904;4.200;2024-01-11T11:00:27;41.75;;;24.63;;
24157;SDS011;12316;50.904;4.200;2024-01-11T11:02:54;46.55;;;25.05;;
24157;SDS011;12316;50.904;4.200;2024-01-11T11:05:20;45.47;;;24.85;;
24157;SDS011;12316;50.904;4.200;2024-01-11T11:07:50;47.15;;;24.42;;
24157;SDS011;12316;50.904;4.200;2024-01-11T11:10:18;45.15;;;24.90;;
24157;SDS011;12316;50.904;4.200;2024-01-11T11:12:45;43.90;;;24.80;;
24157;SDS011;12316;50.904;4.200;2024-01-11T11:15:13;42.65;;;23.92;;
24157;SDS011;12316;50.904;4.200;2024-01-11T11:17:40;45.47;;;23.52;;
24157;SDS011;12316;50.904;4.200;2024-01-11T11:20:07;42.95;;;22.85;;
24157;SDS011;12316;50.904;4.200;2024-01-11T11:22:33;40.17;;;22.23;;
24157;SDS011;12316;50.904;4.200;2024-01-11T11:25:04;44.47;;;23.45;;
24157;SDS011;12316;50.904;4.200;2024-01-11T11:27:38;41.08;;;24.48;;
24157;SDS011;12316;50.904;4.200;2024-01-11T11:30:04;43.78;;;23.17;;
24157;SDS011;12316;50.904;4.200;2024-01-11T11:32:37;42.90;;;22.95;;
24157;SDS011;12316;50.904;4.200;2024-01-11T11:35:03;41.53;;;23.40;;
24157;SDS011;12316;50.904;4.200;2024-01-11T11:37:30;44.75;;;23.75;;
24157;SDS011;12316;50.904;4.200;2024-01-11T11:39:58;43.38;;;23.05;;
24157;SDS011;12316;50.904;4.200;2024-01-11T11:42:25;49.72;;;25.05;;
24157;SDS011;12316;50.904;4.200;2024-01-11T11:44:51;40.60;;;22.75;;
24157;SDS011;12316;50.904;4.200;2024-01-11T11:49:59;41.40;;;23.48;;
24157;SDS011;12316;50.904;4.200;2024-01-11T11:52:28;45.92;;;25.85;;
24157;SDS011;12316;50.904;4.200;2024-01-11T11:54:55;48.40;;;25.25;;
24157;SDS011;12316;50.904;4.200;2024-01-11T11:57:21;43.03;;;22.38;;
24157;SDS011;12316;50.904;4.200;2024-01-11T11:59:48;43.10;;;23.88;;
24157;SDS011;12316;50.904;4.200;2024-01-11T12:02:16;43.20;;;21.92;;
24157;SDS011;12316;50.904;4.200;2024-01-11T12:04:49;39.88;;;22.38;;
24157;SDS011;12316;50.904;4.200;2024-01-11T12:07:14;32.42;;;16.02;;
24157;SDS011;12316;50.904;4.200;2024-01-11T12:09:41;37.92;;;22.70;;
24157;SDS011;12316;50.904;4.200;2024-01-11T12:12:07;40.83;;;22.00;;
24157;SDS011;12316;50.904;4.200;2024-01-11T12:14:33;40.05;;;21.95;;
24157;SDS011;12316;50.904;4.200;2024-01-11T12:17:00;36.95;;;21.52;;
24157;SDS011;12316;50.904;4.200;2024-01-11T12:19:26;35.55;;;21.10;;
24157;SDS011;12316;50.904;4.200;2024-01-11T12:21:52;36.58;;;21.52;;
24157;SDS011;12316;50.904;4.200;2024-01-11T12:24:19;37.85;;;20.20;;
24157;SDS011;12316;50.904;4.200;2024-01-11T12:26:49;35.45;;;20.30;;
24157;SDS011;12316;50.904;4.200;2024-01-11T12:29:22;35.75;;;19.77;;
24157;SDS011;12316;50.904;4.200;2024-01-11T12:31:48;37.97;;;19.95;;
24157;SDS011;12316;50.904;4.200;2024-01-11T12:34:17;33.85;;;18.80;;
24157;SDS011;12316;50.904;4.200;2024-01-11T12:36:43;32.33;;;18.65;;
24157;SDS011;12316;50.904;4.200;2024-01-11T12:39:11;31.80;;;18.63;;
24157;SDS011;12316;50.904;4.200;2024-01-11T12:41:38;35.70;;;19.83;;
24157;SDS011;12316;50.904;4.200;2024-01-11T12:44:04;31.48;;;18.83;;
24157;SDS011;12316;50.904;4.200;2024-01-11T12:46:30;34.10;;;19.65;;
24157;SDS011;12316;50.904;4.200;2024-01-11T12:48:56;35.67;;;20.08;;
24157;SDS011;12316;50.904;4.200;2024-01-11T12:51:21;35.33;;;20.02;;
24157;SDS011;12316;50.904;4.200;2024-01-11T12:53:47;34.78;;;20.92;;
24157;SDS011;12316;50.904;4.200;2024-01-11T12:56:14;34.78;;;19.50;;
24157;SDS011;12316;50.904;4.200;2024-01-11T12:58:41;31.52;;;19.20;;
24157;SDS011;12316;50.904;4.200;2024-01-11T13:01:07;30.35;;;18.75;;
24157;SDS011;12316;50.904;4.200;2024-01-11T13:03:34;32.50;;;17.48;;
24157;SDS011;12316;50.904;4.200;2024-01-11T13:06:01;34.40;;;18.77;;
24157;SDS011;12316;50.904;4.200;2024-01-11T13:08:27;34.35;;;17.38;;
24157;SDS011;12316;50.904;4.200;2024-01-11T13:10:53;31.63;;;18.20;;
24157;SDS011;12316;50.904;4.200;2024-01-11T13:13:19;31.55;;;17.30;;
24157;SDS011;12316;50.904;4.200;2024-01-11T13:15:45;31.75;;;17.17;;
24157;SDS011;12316;50.904;4.200;2024-01-11T13:18:11;28.52;;;17.77;;
24157;SDS011;12316;50.904;4.200;2024-01-11T13:20:37;30.30;;;16.00;;
24157;SDS011;12316;50.904;4.200;2024-01-11T13:23:12;29.67;;;17.05;;
24157;SDS011;12316;50.904;4.200;2024-01-11T13:25:43;34.25;;;17.27;;
24157;SDS011;12316;50.904;4.200;2024-01-11T13:28:10;29.38;;;16.90;;
24157;SDS011;12316;50.904;4.200;2024-01-11T13:30:37;29.92;;;17.75;;
24157;SDS011;12316;50.904;4.200;2024-01-11T13:33:06;28.67;;;17.25;;
24157;SDS011;12316;50.904;4.200;2024-01-11T13:35:34;28.17;;;16.73;;
24157;SDS011;12316;50.904;4.200;2024-01-11T13:38:00;32.45;;;17.88;;
24157;SDS011;12316;50.904;4.200;2024-01-11T13:40:26;30.42;;;18.98;;
24157;SDS011;12316;50.904;4.200;2024-01-11T13:42:54;31.92;;;17.92;;
24157;SDS011;12316;50.904;4.200;2024-01-11T13:45:20;32.97;;;19.20;;
24157;SDS011;12316;50.904;4.200;2024-01-11T13:47:46;32.28;;;19.02;;
24157;SDS011;12316;50.904;4.200;2024-01-11T13:50:12;28.55;;;18.17;;
24157;SDS011;12316;50.904;4.200;2024-01-11T13:52:37;28.40;;;17.58;;
24157;SDS011;12316;50.904;4.200;2024-01-11T13:55:03;28.73;;;18.08;;
24157;SDS011;12316;50.904;4.200;2024-01-11T13:57:29;30.20;;;17.27;;
24157;SDS011;12316;50.904;4.200;2024-01-11T13:59:55;27.30;;;16.45;;
24157;SDS011;12316;50.904;4.200;2024-01-11T14:02:21;26.30;;;16.52;;
24157;SDS011;12316;50.904;4.200;2024-01-11T14:04:47;28.85;;;16.05;;
24157;SDS011;12316;50.904;4.200;2024-01-11T14:07:13;28.42;;;17.55;;
24157;SDS011;12316;50.904;4.200;2024-01-11T14:09:38;30.65;;;16.55;;
24157;SDS011;12316;50.904;4.200;2024-01-11T14:12:05;28.58;;;16.13;;
24157;SDS011;12316;50.904;4.200;2024-01-11T14:14:31;24.90;;;16.25;;
24157;SDS011;12316;50.904;4.200;2024-01-11T14:16:57;29.33;;;16.63;;
24157;SDS011;12316;50.904;4.200;2024-01-11T14:19:22;28.85;;;16.73;;
24157;SDS011;12316;50.904;4.200;2024-01-11T14:21:48;35.92;;;18.20;;